createdAt,value
2022-10-10T00:03:48.507Z,17.63
2022-10-10T00:08:03.276Z,22.33
2022-10-10T00:12:18.349Z,17.53
2022-10-10T00:16:35.347Z,22.00
2022-10-10T00:20:51.117Z,31.60
2022-10-10T00:25:06.567Z,25.67
2022-10-10T00:29:23.052Z,19.67
2022-10-10T00:33:40.157Z,22.87
2022-10-10T00:37:54.823Z,23.70
2022-10-10T00:42:10.900Z,21.20
2022-10-10T00:46:25.970Z,18.73
2022-10-10T00:50:47.570Z,27.40
2022-10-10T00:55:03.318Z,20.67
2022-10-10T00:59:19.169Z,25.47
2022-10-10T01:03:34.415Z,28.77
2022-10-10T01:07:51.013Z,26.43
2022-10-10T01:12:16.731Z,28.57
2022-10-10T01:16:40.511Z,25.23
2022-10-10T01:21:11.777Z,25.73
2022-10-10T01:25:35.703Z,21.33
2022-10-10T01:29:56.565Z,23.40
2022-10-10T01:34:19.516Z,24.20
2022-10-10T01:38:41.197Z,24.80
2022-10-10T01:43:00.266Z,20.17
2022-10-10T01:47:17.750Z,19.73
2022-10-10T01:51:50.156Z,19.93
2022-10-10T01:56:13.322Z,28.60
2022-10-10T02:00:24.758Z,35.83
2022-10-10T02:04:44.208Z,27.73
2022-10-10T02:08:56.054Z,36.07
2022-10-10T02:13:07.173Z,34.27
2022-10-10T02:17:18.014Z,32.97
2022-10-10T02:21:30.666Z,25.83
2022-10-10T02:25:42.566Z,28.40
2022-10-10T02:29:54.819Z,31.50
2022-10-10T02:34:10.013Z,22.23
2022-10-10T02:38:22.282Z,26.93
2022-10-10T02:42:32.143Z,24.67
2022-10-10T02:46:41.430Z,24.20
2022-10-10T02:50:50.692Z,19.67
2022-10-10T02:55:01.347Z,22.00
2022-10-10T02:59:10.447Z,19.87
2022-10-10T03:03:19.496Z,12.87
2022-10-10T03:07:28.772Z,14.07
2022-10-10T03:11:39.359Z,15.67
2022-10-10T03:15:48.721Z,13.13
2022-10-10T03:19:57.891Z,15.53
2022-10-10T03:24:07.224Z,22.97
2022-10-10T03:28:18.234Z,14.07
2022-10-10T03:32:27.515Z,12.87
2022-10-10T03:36:37.000Z,11.43
2022-10-10T03:40:46.831Z,10.80
2022-10-10T03:44:57.411Z,16.27
2022-10-10T03:49:06.569Z,11.07
2022-10-10T03:53:15.630Z,15.17
2022-10-10T03:57:24.665Z,14.13
2022-10-10T04:01:35.688Z,11.57
2022-10-10T04:05:44.815Z,10.50
2022-10-10T04:09:54.352Z,9.90
2022-10-10T04:14:03.358Z,11.97
2022-10-10T04:18:14.155Z,11.83
2022-10-10T04:22:23.211Z,12.23
2022-10-10T04:26:32.556Z,16.57
2022-10-10T04:30:41.811Z,13.87
2022-10-10T04:34:52.540Z,9.60
2022-10-10T04:39:01.566Z,9.47
2022-10-10T04:43:10.753Z,12.03
2022-10-10T04:47:19.933Z,10.57
2022-10-10T04:51:30.577Z,11.27
2022-10-10T04:55:39.813Z,11.20
2022-10-10T04:59:48.944Z,10.97
2022-10-10T05:03:58.096Z,10.20
2022-10-10T05:08:08.825Z,10.10
2022-10-10T05:12:18.034Z,8.27
2022-10-10T05:16:27.042Z,10.67
2022-10-10T05:20:36.635Z,11.93
2022-10-10T05:24:47.169Z,7.93
2022-10-10T05:28:56.287Z,7.83
2022-10-10T05:33:05.470Z,10.57
2022-10-10T05:37:14.529Z,15.67
2022-10-10T05:41:25.184Z,14.03
2022-10-10T05:45:34.614Z,9.93
2022-10-10T05:49:43.812Z,14.53
2022-10-10T05:53:52.879Z,18.93
2022-10-10T05:58:03.528Z,15.23
2022-10-10T06:02:14.566Z,16.37
2022-10-10T06:06:24.414Z,13.00
2022-10-10T06:10:36.526Z,16.53
2022-10-10T06:14:47.061Z,15.97
2022-10-10T06:18:57.840Z,14.23
2022-10-10T06:23:08.081Z,16.30
2022-10-10T06:27:17.162Z,16.17
2022-10-10T06:31:27.857Z,16.13
2022-10-10T06:35:40.099Z,18.00
2022-10-10T06:39:51.000Z,18.87
2022-10-10T06:44:00.447Z,22.03
2022-10-10T06:48:13.866Z,14.37
2022-10-10T06:52:27.417Z,13.33
2022-10-10T06:56:39.409Z,11.63
2022-10-10T07:00:53.031Z,12.10
2022-10-10T07:05:06.149Z,11.30
2022-10-10T07:09:16.127Z,17.77
2022-10-10T07:13:26.108Z,11.87
2022-10-10T07:17:38.361Z,15.20
2022-10-10T07:22:08.027Z,15.50
2022-10-10T07:26:22.642Z,13.70
2022-10-10T07:30:31.948Z,21.83
2022-10-10T07:34:41.537Z,15.60
2022-10-10T07:38:55.065Z,21.57
2022-10-10T07:43:06.635Z,16.77
2022-10-10T07:47:16.067Z,23.07
2022-10-10T07:51:25.427Z,18.67
2022-10-10T07:55:36.693Z,15.03
2022-10-10T07:59:46.346Z,21.40
2022-10-10T08:03:57.867Z,14.47
2022-10-10T08:08:07.308Z,15.47
2022-10-10T08:12:18.006Z,12.37
2022-10-10T08:16:27.293Z,15.53
2022-10-10T08:20:36.466Z,13.07
2022-10-10T08:24:45.967Z,11.77
2022-10-10T08:28:56.548Z,13.63
2022-10-10T08:33:05.825Z,14.30
2022-10-10T08:37:14.968Z,16.07
2022-10-10T08:41:36.746Z,14.07
2022-10-10T08:45:47.537Z,15.80
2022-10-10T08:50:00.786Z,15.87
2022-10-10T08:54:14.446Z,11.00
2022-10-10T08:58:28.100Z,12.30
2022-10-10T09:02:57.989Z,11.40
2022-10-10T09:07:19.366Z,10.80
2022-10-10T09:11:40.167Z,7.57
2022-10-10T09:15:56.866Z,10.83
2022-10-10T09:20:19.746Z,13.33
2022-10-10T09:24:34.194Z,13.70
2022-10-10T09:28:49.709Z,12.70
2022-10-10T09:33:03.428Z,9.27
2022-10-10T09:37:29.544Z,9.23
2022-10-10T09:41:54.327Z,10.03
2022-10-10T09:46:03.886Z,9.73
2022-10-10T09:50:15.526Z,8.23
2022-10-10T09:54:26.729Z,8.47
2022-10-10T09:58:39.906Z,7.60
2022-10-10T10:02:50.890Z,8.07
2022-10-10T10:07:09.146Z,9.60
2022-10-10T10:11:30.486Z,9.53
2022-10-10T10:58:10.357Z,9.37
2022-10-10T11:04:15.649Z,11.50
2022-10-10T11:08:05.187Z,6.80
2022-10-10T11:55:09.886Z,4.97
2022-10-10T12:09:18.190Z,3.33
2022-10-10T12:13:34.968Z,5.17
2022-10-10T12:18:16.907Z,1.43
2022-10-10T12:27:44.535Z,2.07
2022-10-10T12:32:34.366Z,2.33
2022-10-10T12:37:08.828Z,1.23
2022-10-10T12:41:22.988Z,2.40
2022-10-10T12:46:41.926Z,4.20
2022-10-10T12:51:46.925Z,3.13
2022-10-10T12:56:05.527Z,3.20
2022-10-10T13:00:36.027Z,3.33
2022-10-10T13:04:47.454Z,4.77
2022-10-10T13:09:00.306Z,4.33
2022-10-10T13:13:20.306Z,4.20
2022-10-10T13:17:41.385Z,3.87
2022-10-10T13:21:52.985Z,7.10
2022-10-10T13:26:10.516Z,3.33
2022-10-10T13:30:41.648Z,5.70
2022-10-10T13:35:11.487Z,5.60
2022-10-10T13:39:25.990Z,7.50
2022-10-10T13:43:37.986Z,5.43
2022-10-10T13:52:49.826Z,8.60
2022-10-10T13:57:25.247Z,6.17
2022-10-10T14:12:19.406Z,6.60
2022-10-10T14:37:31.048Z,8.57
2022-10-10T14:57:08.653Z,7.00
2022-10-10T15:01:07.604Z,4.57
2022-10-10T15:05:17.946Z,6.30
2022-10-10T15:09:44.940Z,6.50
2022-10-10T15:13:58.869Z,9.33
2022-10-10T15:18:25.670Z,7.40
2022-10-10T15:22:39.827Z,6.80
2022-10-10T15:26:49.225Z,3.97
2022-10-10T15:31:00.415Z,7.27
2022-10-10T15:35:13.972Z,2.60
2022-10-10T15:39:26.515Z,4.50
2022-10-10T15:43:45.885Z,4.30
2022-10-10T15:47:57.467Z,4.53
2022-10-10T15:52:08.087Z,3.93
2022-10-10T15:56:18.127Z,5.27
2022-10-10T16:00:27.440Z,2.83
2022-10-10T16:04:38.427Z,4.73
2022-10-10T16:08:55.735Z,4.50
2022-10-10T16:13:15.176Z,2.17
2022-10-10T16:17:24.526Z,2.70
2022-10-10T16:21:35.926Z,2.90
2022-10-10T16:25:45.126Z,5.47
2022-10-10T16:29:54.124Z,4.17
2022-10-10T16:34:03.647Z,1.60
2022-10-10T16:38:17.366Z,2.83
2022-10-10T16:42:26.825Z,3.07
2022-10-10T16:46:37.087Z,3.23
2022-10-10T16:50:46.847Z,2.37
2022-10-10T16:54:58.488Z,2.23
2022-10-10T16:59:07.805Z,3.37
2022-10-10T17:03:16.887Z,4.27
2022-10-10T17:07:26.245Z,5.47
2022-10-10T17:11:37.521Z,5.07
2022-10-10T17:15:46.945Z,6.10
2022-10-10T17:19:56.387Z,5.43
2022-10-10T17:24:06.926Z,4.67
2022-10-10T17:28:18.794Z,5.50
2022-10-10T17:32:28.224Z,7.17
2022-10-10T17:36:37.426Z,5.43
2022-10-10T17:40:47.046Z,6.30
2022-10-10T17:44:59.768Z,6.50
2022-10-10T17:49:12.387Z,5.43
2022-10-10T17:53:25.626Z,7.77
2022-10-10T18:01:50.847Z,6.43
2022-10-10T18:06:26.967Z,6.73
2022-10-10T18:10:55.288Z,8.07
2022-10-10T18:15:04.969Z,5.87
2022-10-10T18:19:16.707Z,6.27
2022-10-10T18:23:28.426Z,7.40
2022-10-10T18:27:50.485Z,5.83
2022-10-10T18:32:00.028Z,6.50
2022-10-10T18:36:15.568Z,6.97
2022-10-10T18:40:24.847Z,7.73
2022-10-10T18:49:43.267Z,7.07
2022-10-10T18:53:59.051Z,6.63
2022-10-10T18:58:08.132Z,5.80
2022-10-10T19:02:17.251Z,5.57
2022-10-10T19:30:00.493Z,7.23
2022-10-10T19:34:14.396Z,7.67
2022-10-10T19:38:23.713Z,5.50
2022-10-10T19:42:33.274Z,8.27
2022-10-10T19:46:42.477Z,9.17
2022-10-10T19:50:53.932Z,7.77
2022-10-10T19:55:03.154Z,5.03
2022-10-10T19:59:12.231Z,6.57
2022-10-10T20:03:21.512Z,9.63
2022-10-10T20:07:32.255Z,7.37
2022-10-10T20:11:41.974Z,6.50
2022-10-10T20:15:51.974Z,9.97
2022-10-10T20:20:01.549Z,8.97
2022-10-10T20:24:12.611Z,7.13
2022-10-10T20:28:23.266Z,9.37
2022-10-10T20:32:32.494Z,5.63
2022-10-10T20:36:41.753Z,10.77
2022-10-10T20:40:52.595Z,6.33
2022-10-10T20:45:01.913Z,8.63
2022-10-10T20:49:14.856Z,7.43
2022-10-10T20:53:23.952Z,6.53
2022-10-10T20:57:34.634Z,5.80
2022-10-10T21:01:45.737Z,7.43
2022-10-10T21:06:03.953Z,6.07
2022-10-10T21:10:13.375Z,8.43
2022-10-10T21:14:24.094Z,6.27
2022-10-10T21:18:33.552Z,7.23
2022-10-10T21:22:42.831Z,6.50
2022-10-10T21:26:52.174Z,6.03
2022-10-10T21:31:03.196Z,9.83
2022-10-10T21:35:12.415Z,9.97
2022-10-10T21:39:21.573Z,6.83
2022-10-10T21:43:30.713Z,10.77
2022-10-10T21:47:43.406Z,8.40
2022-10-10T21:51:52.490Z,7.47
2022-10-10T21:56:05.354Z,5.13
2022-10-10T22:00:16.193Z,10.73
2022-10-10T22:04:28.986Z,5.50
2022-10-10T22:08:39.295Z,4.70
2022-10-10T22:12:48.456Z,8.47
2022-10-10T22:16:57.591Z,7.17
2022-10-10T22:21:11.231Z,7.27
2022-10-10T22:25:21.176Z,7.70
2022-10-10T22:29:30.353Z,6.40
2022-10-10T22:33:39.352Z,8.50
2022-10-10T22:37:50.178Z,8.53
2022-10-10T22:41:59.354Z,10.47
2022-10-10T22:46:09.095Z,6.70
2022-10-10T22:50:19.472Z,7.20
2022-10-10T22:54:30.576Z,4.57
2022-10-10T22:58:39.852Z,8.17
2022-10-10T23:02:49.094Z,8.13
2022-10-10T23:06:58.352Z,7.43
2022-10-10T23:11:09.352Z,5.77
2022-10-10T23:15:18.534Z,7.53
2022-10-10T23:19:27.794Z,6.37
2022-10-10T23:23:37.055Z,8.83
2022-10-10T23:27:47.853Z,8.53
2022-10-10T23:31:58.412Z,6.80
2022-10-10T23:36:10.129Z,10.33
2022-10-10T23:40:19.577Z,9.67
2022-10-10T23:44:30.669Z,7.43
2022-10-10T23:48:40.030Z,8.30
2022-10-10T23:52:49.195Z,7.13
2022-10-10T23:56:58.433Z,9.97
